createdAt,value
2022-10-19T00:01:53.654Z,2.45
2022-10-19T00:07:14.063Z,2.60
2022-10-19T00:12:34.813Z,2.78
2022-10-19T00:17:55.869Z,2.75
2022-10-19T00:23:16.374Z,1.73
2022-10-19T00:28:37.171Z,2.88
2022-10-19T00:33:58.290Z,1.95
2022-10-19T00:39:19.193Z,2.60
2022-10-19T00:44:39.316Z,2.10
2022-10-19T00:50:00.054Z,2.30
2022-10-19T00:55:20.902Z,2.20
2022-10-19T01:00:41.654Z,3.10
2022-10-19T01:06:03.289Z,2.08
2022-10-19T01:11:47.499Z,2.88
2022-10-19T01:17:38.410Z,2.88
2022-10-19T01:23:05.482Z,2.28
2022-10-19T01:28:44.599Z,2.22
2022-10-19T01:34:20.790Z,2.28
2022-10-19T01:39:53.601Z,2.72
2022-10-19T01:45:25.783Z,2.25
2022-10-19T01:50:46.242Z,2.92
2022-10-19T01:56:08.536Z,2.30
2022-10-19T02:01:35.321Z,1.85
2022-10-19T02:06:56.878Z,1.75
2022-10-19T02:12:20.571Z,2.40
2022-10-19T02:17:46.708Z,1.90
2022-10-19T02:23:07.852Z,2.55
2022-10-19T02:28:31.236Z,2.55
2022-10-19T02:33:52.663Z,3.20
2022-10-19T02:39:13.207Z,1.85
2022-10-19T02:50:19.266Z,2.03
2022-10-19T03:01:03.005Z,2.78
2022-10-19T03:06:23.647Z,2.33
2022-10-19T03:11:43.946Z,2.55
2022-10-19T03:17:05.033Z,4.43
2022-10-19T03:22:27.315Z,2.88
2022-10-19T03:27:48.274Z,1.80
2022-10-19T03:33:08.611Z,2.08
2022-10-19T03:38:29.291Z,2.65
2022-10-19T03:43:50.375Z,2.05
2022-10-19T03:49:11.873Z,3.13
2022-10-19T03:54:32.287Z,2.80
2022-10-19T03:59:52.833Z,2.63
2022-10-19T04:05:13.509Z,2.70
2022-10-19T04:10:34.268Z,1.88
2022-10-19T04:15:54.784Z,1.85
2022-10-19T04:21:30.368Z,2.10
2022-10-19T04:26:53.536Z,2.33
2022-10-19T04:32:14.246Z,3.10
2022-10-19T04:37:35.330Z,3.90
2022-10-19T04:42:55.856Z,2.30
2022-10-19T04:48:16.548Z,2.60
2022-10-19T04:53:39.560Z,2.65
2022-10-19T04:59:01.072Z,2.58
2022-10-19T05:04:21.326Z,2.45
2022-10-19T05:09:41.838Z,2.30
2022-10-19T05:15:02.598Z,2.42
2022-10-19T05:20:24.709Z,3.08
2022-10-19T05:25:45.207Z,2.45
2022-10-19T05:31:07.020Z,2.60
2022-10-19T05:36:34.717Z,2.58
2022-10-19T05:41:55.154Z,2.70
2022-10-19T05:47:15.545Z,2.63
2022-10-19T05:52:36.069Z,2.63
2022-10-19T05:57:56.916Z,2.72
2022-10-19T06:03:17.674Z,2.88
2022-10-19T06:08:39.768Z,2.15
2022-10-19T06:14:02.451Z,2.58
2022-10-19T06:19:23.031Z,2.97
2022-10-19T06:24:43.615Z,2.92
2022-10-19T06:30:04.677Z,2.65
2022-10-19T06:35:25.428Z,3.78
2022-10-19T06:40:45.981Z,2.97
2022-10-19T06:46:08.400Z,2.45
2022-10-19T06:51:32.085Z,3.47
2022-10-19T06:56:52.658Z,2.55
2022-10-19T07:02:13.475Z,2.80
2022-10-19T07:07:34.854Z,2.75
2022-10-19T07:12:56.480Z,2.58
2022-10-19T07:18:17.554Z,2.00
2022-10-19T07:23:40.280Z,2.45
2022-10-19T07:29:01.501Z,1.58
2022-10-19T07:34:24.237Z,2.60
2022-10-19T07:39:47.822Z,2.13
2022-10-19T07:45:08.308Z,2.40
2022-10-19T07:50:28.575Z,2.22
2022-10-19T07:55:49.286Z,2.72
2022-10-19T08:01:13.040Z,1.63
2022-10-19T08:06:33.831Z,1.75
2022-10-19T08:11:54.525Z,1.70
2022-10-19T08:17:17.537Z,1.77
2022-10-19T08:22:38.379Z,1.80
2022-10-19T08:27:59.311Z,1.60
2022-10-19T08:33:19.776Z,1.40
2022-10-19T08:38:43.588Z,1.52
2022-10-19T08:44:10.258Z,1.43
2022-10-19T08:49:32.023Z,1.23
2022-10-19T08:54:54.448Z,2.33
2022-10-19T09:00:35.207Z,1.58
2022-10-19T09:06:22.554Z,1.77
2022-10-19T09:11:46.340Z,2.08
2022-10-19T09:17:13.886Z,1.17
2022-10-19T09:22:35.883Z,1.25
2022-10-19T09:28:27.410Z,1.67
2022-10-19T09:33:57.330Z,1.70
2022-10-19T09:39:18.388Z,1.60
2022-10-19T09:44:38.942Z,2.20
2022-10-19T09:50:15.230Z,1.90
2022-10-19T09:55:42.882Z,1.90
2022-10-19T10:01:03.895Z,1.60
2022-10-19T10:06:24.492Z,2.13
2022-10-19T10:11:49.433Z,2.25
2022-10-19T10:17:17.837Z,1.70
2022-10-19T10:22:38.190Z,1.70
2022-10-19T10:28:02.139Z,1.90
2022-10-19T10:33:44.179Z,2.28
2022-10-19T10:39:08.286Z,1.80
2022-10-19T10:44:34.972Z,2.28
2022-10-19T10:50:02.628Z,1.80
2022-10-19T10:55:23.523Z,1.85
2022-10-19T11:00:45.291Z,2.35
2022-10-19T11:06:09.056Z,2.25
2022-10-19T11:11:39.903Z,2.40
2022-10-19T11:17:06.028Z,2.42
2022-10-19T11:22:40.130Z,2.55
2022-10-19T11:28:20.949Z,2.22
2022-10-19T11:33:54.004Z,2.15
2022-10-19T11:39:41.489Z,2.97
2022-10-19T11:45:15.635Z,3.00
2022-10-19T11:50:58.582Z,3.40
2022-10-19T11:57:03.237Z,2.47
2022-10-19T12:03:03.901Z,2.80
2022-10-19T12:08:30.532Z,3.10
2022-10-19T12:13:56.202Z,3.05
2022-10-19T12:19:22.803Z,3.13
2022-10-19T12:24:43.472Z,3.50
2022-10-19T12:30:18.433Z,3.10
2022-10-19T12:35:52.407Z,3.00
2022-10-19T12:41:18.613Z,2.72
2022-10-19T12:46:49.824Z,2.60
2022-10-19T12:52:15.908Z,2.83
2022-10-19T12:57:39.846Z,3.00
2022-10-19T13:03:25.122Z,2.50
2022-10-19T13:08:57.083Z,2.60
2022-10-19T13:14:17.579Z,1.90
2022-10-19T13:19:37.837Z,1.85
2022-10-19T13:25:16.714Z,1.70
2022-10-19T13:30:41.697Z,1.35
2022-10-19T13:36:06.530Z,1.00
2022-10-19T13:41:38.445Z,0.63
2022-10-19T13:47:31.839Z,0.70
2022-10-19T13:52:52.370Z,0.77
2022-10-19T13:58:36.941Z,0.77
2022-10-19T14:04:30.412Z,0.80
2022-10-19T14:09:50.816Z,0.70
2022-10-19T14:15:20.353Z,0.85
2022-10-19T14:20:41.057Z,0.70
2022-10-19T14:26:11.833Z,0.65
2022-10-19T14:31:36.415Z,0.80
2022-10-19T14:36:57.262Z,0.95
2022-10-19T14:42:17.923Z,0.70
2022-10-19T14:48:01.014Z,0.60
2022-10-19T14:53:39.777Z,0.73
2022-10-19T14:59:19.638Z,0.50
2022-10-19T15:04:40.490Z,2.28
2022-10-19T15:10:04.636Z,0.82
2022-10-19T15:15:30.271Z,0.38
2022-10-19T15:21:12.673Z,0.50
2022-10-19T15:26:33.575Z,0.85
2022-10-19T15:31:56.474Z,0.75
2022-10-19T15:37:21.483Z,0.47
2022-10-19T15:48:15.859Z,1.02
2022-10-19T15:53:36.343Z,0.80
2022-10-19T15:58:59.136Z,0.68
2022-10-19T16:04:19.714Z,0.68
2022-10-19T16:09:40.284Z,0.93
2022-10-19T16:15:01.081Z,1.20
2022-10-19T16:20:23.034Z,1.27
2022-10-19T16:25:43.779Z,1.20
2022-10-19T16:31:04.112Z,1.38
2022-10-19T16:36:24.388Z,0.50
2022-10-19T16:41:44.874Z,0.77
2022-10-19T16:47:05.846Z,0.68
2022-10-19T16:52:31.910Z,1.20
2022-10-19T16:57:53.372Z,0.40
2022-10-19T17:03:14.189Z,0.57
2022-10-19T17:09:07.398Z,1.40
2022-10-19T17:14:15.177Z,1.40
2022-10-19T17:19:37.219Z,3.85
2022-10-19T17:24:57.544Z,2.00
2022-10-19T17:30:18.701Z,1.42
2022-10-19T17:35:39.096Z,4.35
2022-10-19T17:41:11.815Z,1.55
2022-10-19T17:46:34.973Z,1.10
2022-10-19T17:51:55.358Z,1.45
2022-10-19T17:57:15.590Z,1.67
2022-10-19T18:02:36.076Z,0.80
2022-10-19T18:07:57.112Z,0.80
2022-10-19T18:13:17.721Z,0.77
2022-10-19T18:18:41.164Z,0.90
2022-10-19T18:24:02.911Z,0.90
2022-10-19T18:29:26.000Z,0.90
2022-10-19T18:34:46.557Z,0.77
2022-10-19T18:40:10.325Z,1.60
2022-10-19T18:45:31.679Z,1.80
2022-10-19T18:50:52.404Z,2.30
2022-10-19T18:56:15.399Z,1.15
2022-10-19T19:01:35.945Z,1.30
2022-10-19T19:06:56.052Z,1.80
2022-10-19T19:12:17.182Z,2.00
2022-10-19T19:17:38.549Z,1.63
2022-10-19T19:22:59.270Z,2.28
2022-10-19T19:28:19.997Z,1.90
2022-10-19T19:33:40.704Z,1.55
2022-10-19T19:39:01.752Z,1.27
2022-10-19T19:44:22.465Z,1.58
2022-10-19T19:49:42.861Z,1.63
2022-10-19T19:55:04.236Z,1.00
2022-10-19T20:00:24.851Z,1.13
2022-10-19T20:05:45.424Z,1.48
2022-10-19T20:11:09.558Z,1.25
2022-10-19T20:16:34.226Z,0.80
2022-10-19T20:21:56.281Z,1.05
2022-10-19T20:27:16.961Z,1.13
2022-10-19T20:32:38.061Z,1.08
2022-10-19T20:37:59.075Z,1.70
2022-10-19T20:43:19.628Z,0.93
2022-10-19T20:48:40.773Z,1.20
2022-10-19T20:54:03.092Z,0.95
2022-10-19T20:59:27.765Z,0.93
2022-10-19T21:04:48.367Z,1.00
2022-10-19T21:10:08.847Z,0.80
2022-10-19T21:15:29.170Z,1.02
2022-10-19T21:20:49.750Z,0.85
2022-10-19T21:26:11.686Z,0.80
2022-10-19T21:31:32.293Z,1.15
2022-10-19T21:36:54.015Z,0.68
2022-10-19T21:42:14.352Z,0.77
2022-10-19T21:47:35.908Z,1.23
2022-10-19T21:52:56.657Z,0.82
2022-10-19T21:58:17.595Z,0.88
2022-10-19T22:03:38.339Z,0.80
2022-10-19T22:08:59.586Z,0.80
2022-10-19T22:14:20.203Z,1.35
2022-10-19T22:19:40.786Z,1.52
2022-10-19T22:25:01.656Z,1.00
2022-10-19T22:30:22.089Z,1.63
2022-10-19T22:35:42.647Z,1.35
2022-10-19T22:41:03.244Z,1.27
2022-10-19T22:46:23.740Z,1.17
2022-10-19T22:51:44.344Z,1.33
2022-10-19T22:57:05.691Z,1.25
2022-10-19T23:02:25.772Z,1.10
2022-10-19T23:07:46.577Z,1.20
2022-10-19T23:13:07.396Z,1.25
2022-10-19T23:18:31.802Z,1.55
2022-10-19T23:23:52.363Z,1.05
2022-10-19T23:29:12.814Z,1.35
2022-10-19T23:39:59.807Z,1.40
2022-10-19T23:45:20.386Z,1.17
2022-10-19T23:50:40.947Z,1.05
2022-10-19T23:56:03.912Z,1.15
